Darstellungsparameter: Aktuell verwendete Einstellungen:
Skalierung der Graphiken ... ?
xyx+y,   Skalierungsfaktor:      Skalierung: Modus: x, Faktor: 1
Darstellungszeitraum ... ?
Vom - - bis: - -   Zeitraum: 26.01.2018 - 26.01.2018
Min/Max/Avg-Anzeige ... ?
Zeige MMA aktuell
Zeige MMA Monat
Zeige MMA alles
Zeige --A aktuell
Zeige --A Monat
Zeige --A alles
Keine MMA-Anzeige
MMA:
Average (ber die Originaldaten)
MMA-Basis: 26.01.2018 - 26.01.2018
Quicknavigation für Darstellung... ?
Tage:      1T, 2T, 3T, 5T -1T -2T -3T -5T +1T +2T +3T +5T
Wochen: 1W, 2W, 3W -1W -2W -3W +1W +2W +3W
Monate: 1M, 3M, 6M -1M -3M -6M +1M +3M +6M
Jahre:    1J, 3J, 5J, 10J -1J -3J -5J -10J +1J +3J +5J +10J
Nutze für die Darstellung ... ?
Originaldaten oder Mittelwerte auf ...
Stundenbasis Tagesbasis Wochenbasis
Monatsbasis Jahresbasis      Datenbasis: Original-Daten
Darstellen als:
Statistik (Auto) Statistik J:M      Darstellung:
Zur Graphik,    zurück zur Übersicht aller Sensoren.
 
Tabellarische Datenbersicht: ?
 
Sensor: Nr:Datum:Temp:Abs-Feuchte:Windchill:Wind:
Aussen-T/F 1 26-01-2018 00:00:00 7.3 C 7.66 g/m*3 7.3 C 0 km/h
2 26-01-2018 00:05:00 7.2 C 7.61 g/m*3 7.2 C 3.2 km/h
3 26-01-2018 00:10:00 7.2 C 7.61 g/m*3 7.2 C 0 km/h
4 26-01-2018 00:15:00 7.2 C 7.61 g/m*3 7.2 C 0 km/h
5 26-01-2018 00:20:00 7.2 C 7.61 g/m*3 7.2 C 0 km/h
6 26-01-2018 00:25:00 7.2 C 7.61 g/m*3 7.2 C 0 km/h
7 26-01-2018 00:30:00 7.2 C 7.61 g/m*3 7.2 C 3.2 km/h
8 26-01-2018 00:35:00 7.1 C 7.57 g/m*3 7.1 C 3.2 km/h
9 26-01-2018 00:40:00 7.1 C 7.57 g/m*3 7.1 C 3.2 km/h
10 26-01-2018 00:45:00 7.1 C 7.57 g/m*3 7.1 C 1.6 km/h
11 26-01-2018 00:50:00 7.1 C 7.57 g/m*3 7.1 C 0 km/h
12 26-01-2018 00:55:00 7.1 C 7.57 g/m*3 7.1 C 0 km/h
13 26-01-2018 01:00:00 7.1 C 7.57 g/m*3 7.1 C 0 km/h
14 26-01-2018 01:05:00 7.1 C 7.57 g/m*3 7.1 C 0 km/h
15 26-01-2018 01:10:00 7 C 7.52 g/m*3 7 C 1.6 km/h
16 26-01-2018 01:15:00 7 C 7.52 g/m*3 7 C 1.6 km/h
17 26-01-2018 01:20:00 7 C 7.52 g/m*3 7 C 1.6 km/h
18 26-01-2018 01:25:00 7 C 7.52 g/m*3 7 C 0 km/h
19 26-01-2018 01:30:00 6.9 C 7.47 g/m*3 6.9 C 1.6 km/h
20 26-01-2018 01:35:00 6.9 C 7.47 g/m*3 6.9 C 1.6 km/h
21 26-01-2018 01:40:00 6.9 C 7.47 g/m*3 6.9 C 0 km/h
22 26-01-2018 01:45:00 6.9 C 7.47 g/m*3 6.9 C 0 km/h
23 26-01-2018 01:50:00 6.9 C 7.47 g/m*3 6.9 C 1.6 km/h
24 26-01-2018 01:55:00 6.8 C 7.42 g/m*3 6.8 C 0 km/h
25 26-01-2018 02:00:00 6.8 C 7.42 g/m*3 6.8 C 1.6 km/h
Sensor: Nr:Datum:Temp:Abs-Feuchte:Windchill:Wind:
Aussen-T/F 26 26-01-2018 02:05:00 6.8 C 7.42 g/m*3 6.8 C 0 km/h
27 26-01-2018 02:10:00 6.8 C 7.42 g/m*3 6.8 C 0 km/h
28 26-01-2018 02:15:00 6.8 C 7.42 g/m*3 6.8 C 0 km/h
29 26-01-2018 02:20:00 6.7 C 7.37 g/m*3 6.7 C 0 km/h
30 26-01-2018 02:25:00 6.7 C 7.37 g/m*3 6.7 C 0 km/h
31 26-01-2018 02:30:00 6.7 C 7.37 g/m*3 6.7 C 0 km/h
32 26-01-2018 02:35:00 6.7 C 7.37 g/m*3 6.7 C 0 km/h
33 26-01-2018 02:40:00 6.7 C 7.37 g/m*3 6.7 C 0 km/h
34 26-01-2018 02:45:00 6.7 C 7.37 g/m*3 6.7 C 0 km/h
35 26-01-2018 02:50:00 6.7 C 7.37 g/m*3 6.7 C 0 km/h
36 26-01-2018 02:55:00 6.7 C 7.37 g/m*3 6.7 C 0 km/h
37 26-01-2018 03:00:00 6.7 C 7.37 g/m*3 6.7 C 0 km/h
38 26-01-2018 03:05:00 6.7 C 7.37 g/m*3 6.7 C 0 km/h
39 26-01-2018 03:10:00 6.7 C 7.37 g/m*3 6.7 C 0 km/h
40 26-01-2018 03:15:00 6.6 C 7.32 g/m*3 6.6 C 0 km/h
41 26-01-2018 03:20:00 6.6 C 7.32 g/m*3 6.6 C 0 km/h
42 26-01-2018 03:25:00 6.6 C 7.32 g/m*3 6.6 C 0 km/h
43 26-01-2018 03:30:00 6.6 C 7.32 g/m*3 6.6 C 0 km/h
44 26-01-2018 03:35:00 6.6 C 7.32 g/m*3 6.6 C 0 km/h
45 26-01-2018 03:40:00 6.6 C 7.32 g/m*3 6.6 C 0 km/h
46 26-01-2018 03:45:00 6.6 C 7.32 g/m*3 6.6 C 0 km/h
47 26-01-2018 03:50:00 6.5 C 7.27 g/m*3 6.5 C 0 km/h
48 26-01-2018 03:55:00 6.4 C 7.23 g/m*3 6.4 C 0 km/h
49 26-01-2018 04:00:00 6.3 C 7.18 g/m*3 6.3 C 0 km/h
50 26-01-2018 04:05:00 6.3 C 7.18 g/m*3 6.3 C 0 km/h
Sensor: Nr:Datum:Temp:Abs-Feuchte:Windchill:Wind:
Aussen-T/F 51 26-01-2018 04:10:00 6.3 C 7.18 g/m*3 6.3 C 0 km/h
52 26-01-2018 04:15:00 6.3 C 7.18 g/m*3 6.3 C 0 km/h
53 26-01-2018 04:20:00 6.3 C 7.18 g/m*3 6.3 C 0 km/h
54 26-01-2018 04:25:00 6.3 C 7.18 g/m*3 6.3 C 0 km/h
55 26-01-2018 04:30:00 6.3 C 7.18 g/m*3 6.3 C 0 km/h
56 26-01-2018 04:35:00 6.4 C 7.23 g/m*3 6.4 C 0 km/h
57 26-01-2018 04:40:00 6.4 C 7.23 g/m*3 6.4 C 0 km/h
58 26-01-2018 04:45:00 6.4 C 7.23 g/m*3 6.4 C 0 km/h
59 26-01-2018 04:50:00 6.4 C 7.23 g/m*3 6.4 C 0 km/h
60 26-01-2018 04:55:00 6.4 C 7.23 g/m*3 6.4 C 0 km/h
61 26-01-2018 05:00:00 6.5 C 7.27 g/m*3 6.5 C 0 km/h
62 26-01-2018 05:05:00 6.5 C 7.27 g/m*3 6.5 C 0 km/h
63 26-01-2018 05:10:00 6.5 C 7.27 g/m*3 6.5 C 0 km/h
64 26-01-2018 05:15:00 6.6 C 7.32 g/m*3 6.6 C 0 km/h
65 26-01-2018 05:20:00 6.6 C 7.32 g/m*3 5.44 C 6.4 km/h
66 26-01-2018 05:25:00 6.6 C 7.32 g/m*3 5.44 C 6.4 km/h
67 26-01-2018 05:30:00 6.6 C 7.32 g/m*3 6.6 C 0 km/h
68 26-01-2018 05:35:00 6.7 C 7.37 g/m*3 6.7 C 0 km/h
69 26-01-2018 05:40:00 6.7 C 7.37 g/m*3 6.7 C 0 km/h
70 26-01-2018 05:45:00 6.7 C 7.37 g/m*3 6.7 C 0 km/h
71 26-01-2018 05:50:00 6.7 C 7.37 g/m*3 6.7 C 0 km/h
72 26-01-2018 05:55:00 6.7 C 7.37 g/m*3 6.7 C 0 km/h
73 26-01-2018 06:00:00 6.7 C 7.37 g/m*3 6.7 C 0 km/h
74 26-01-2018 06:05:00 6.7 C 7.37 g/m*3 6.7 C 0 km/h
75 26-01-2018 06:10:00 6.7 C 7.37 g/m*3 6.7 C 0 km/h
Sensor: Nr:Datum:Temp:Abs-Feuchte:Windchill:Wind:
Aussen-T/F 76 26-01-2018 06:15:00 6.6 C 7.32 g/m*3 6.6 C 0 km/h
77 26-01-2018 06:20:00 6.6 C 7.32 g/m*3 6.6 C 0 km/h
78 26-01-2018 06:25:00 6.6 C 7.32 g/m*3 6.6 C 0 km/h
79 26-01-2018 06:30:00 6.5 C 7.27 g/m*3 6.5 C 0 km/h
80 26-01-2018 06:35:00 6.5 C 7.27 g/m*3 6.5 C 0 km/h
81 26-01-2018 06:40:00 6.4 C 7.23 g/m*3 6.4 C 0 km/h
82 26-01-2018 06:45:00 6.4 C 7.23 g/m*3 6.4 C 0 km/h
83 26-01-2018 06:50:00 6.4 C 7.23 g/m*3 6.4 C 0 km/h
84 26-01-2018 06:55:00 6.4 C 7.23 g/m*3 6.4 C 0 km/h
85 26-01-2018 07:00:00 6.4 C 7.23 g/m*3 6.4 C 0 km/h
86 26-01-2018 07:05:00 6.4 C 7.23 g/m*3 6.4 C 0 km/h
87 26-01-2018 07:10:00 6.4 C 7.23 g/m*3 6.4 C 0 km/h
88 26-01-2018 07:15:00 6.4 C 7.23 g/m*3 6.4 C 0 km/h
89 26-01-2018 07:20:00 6.4 C 7.23 g/m*3 6.4 C 0 km/h
90 26-01-2018 07:25:00 6.4 C 7.23 g/m*3 6.4 C 0 km/h
91 26-01-2018 07:30:00 6.4 C 7.23 g/m*3 6.4 C 0 km/h
92 26-01-2018 07:35:00 6.4 C 7.23 g/m*3 6.4 C 0 km/h
93 26-01-2018 07:40:00 6.3 C 7.18 g/m*3 6.3 C 0 km/h
94 26-01-2018 07:45:00 6.3 C 7.18 g/m*3 6.3 C 0 km/h
95 26-01-2018 07:50:00 6.3 C 7.18 g/m*3 6.3 C 0 km/h
96 26-01-2018 07:55:00 6.3 C 7.18 g/m*3 6.3 C 0 km/h
97 26-01-2018 08:00:00 6.3 C 7.18 g/m*3 6.3 C 0 km/h
98 26-01-2018 08:05:00 6.3 C 7.18 g/m*3 6.3 C 0 km/h
99 26-01-2018 08:10:00 6.3 C 7.18 g/m*3 6.3 C 0 km/h
100 26-01-2018 08:15:00 6.3 C 7.18 g/m*3 6.3 C 0 km/h
Sensor: Nr:Datum:Temp:Abs-Feuchte:Windchill:Wind:
Aussen-T/F 101 26-01-2018 08:20:00 6.3 C 7.18 g/m*3 6.3 C 0 km/h
102 26-01-2018 08:25:00 6.3 C 7.18 g/m*3 6.3 C 0 km/h
103 26-01-2018 08:30:00 6.3 C 7.18 g/m*3 6.3 C 0 km/h
104 26-01-2018 08:35:00 6.4 C 7.23 g/m*3 6.4 C 0 km/h
105 26-01-2018 08:40:00 6.4 C 7.23 g/m*3 6.4 C 0 km/h
106 26-01-2018 08:45:00 6.4 C 7.23 g/m*3 6.4 C 0 km/h
107 26-01-2018 08:50:00 6.4 C 7.23 g/m*3 6.4 C 0 km/h
108 26-01-2018 08:55:00 6.4 C 7.23 g/m*3 6.4 C 0 km/h
109 26-01-2018 09:00:00 6.4 C 7.23 g/m*3 6.4 C 0 km/h
110 26-01-2018 09:05:00 6.5 C 7.27 g/m*3 6.5 C 0 km/h
111 26-01-2018 09:10:00 6.5 C 7.27 g/m*3 6.5 C 0 km/h
112 26-01-2018 09:15:00 6.6 C 7.32 g/m*3 6.6 C 0 km/h
113 26-01-2018 09:20:00 6.6 C 7.32 g/m*3 6.6 C 0 km/h
114 26-01-2018 09:25:00 6.6 C 7.32 g/m*3 6.6 C 0 km/h
115 26-01-2018 09:30:00 6.7 C 7.37 g/m*3 6.7 C 0 km/h
116 26-01-2018 09:35:00 6.8 C 7.42 g/m*3 6.8 C 0 km/h
117 26-01-2018 09:40:00 6.8 C 7.42 g/m*3 6.8 C 0 km/h
118 26-01-2018 09:45:00 6.8 C 7.5 g/m*3 6.8 C 0 km/h
119 26-01-2018 09:50:00 6.9 C 7.54 g/m*3 6.9 C 0 km/h
120 26-01-2018 09:55:00 7 C 7.59 g/m*3 7 C 0 km/h
121 26-01-2018 10:00:00 7.1 C 7.57 g/m*3 7.1 C 0 km/h
122 26-01-2018 10:05:00 7.2 C 7.61 g/m*3 7.2 C 0 km/h
123 26-01-2018 10:10:00 7.2 C 7.69 g/m*3 7.2 C 0 km/h
124 26-01-2018 10:15:00 7.3 C 7.74 g/m*3 7.3 C 0 km/h
125 26-01-2018 10:20:00 7.3 C 7.74 g/m*3 7.3 C 1.6 km/h
Sensor: Nr:Datum:Temp:Abs-Feuchte:Windchill:Wind:
Aussen-T/F 126 26-01-2018 10:25:00 7.3 C 7.66 g/m*3 7.3 C 3.2 km/h
127 26-01-2018 10:30:00 7.4 C 7.71 g/m*3 7.4 C 3.2 km/h
128 26-01-2018 10:35:00 7.4 C 7.71 g/m*3 7.4 C 3.2 km/h
129 26-01-2018 10:40:00 7.4 C 7.71 g/m*3 7.4 C 3.2 km/h
130 26-01-2018 10:45:00 7.4 C 7.71 g/m*3 7.4 C 4.8 km/h
131 26-01-2018 10:50:00 7.4 C 7.71 g/m*3 7.4 C 4.8 km/h
132 26-01-2018 10:55:00 7.4 C 7.71 g/m*3 7.4 C 4.8 km/h
133 26-01-2018 11:00:00 7.5 C 7.76 g/m*3 7.5 C 3.2 km/h
134 26-01-2018 11:05:00 7.5 C 7.76 g/m*3 7.5 C 4.8 km/h
135 26-01-2018 11:10:00 7.5 C 7.76 g/m*3 7.5 C 3.2 km/h
136 26-01-2018 11:15:00 7.5 C 7.76 g/m*3 7.5 C 1.6 km/h
137 26-01-2018 11:20:00 7.6 C 7.81 g/m*3 7.6 C 1.6 km/h
138 26-01-2018 11:25:00 7.6 C 7.81 g/m*3 7.6 C 4.8 km/h
139 26-01-2018 11:30:00 7.6 C 7.81 g/m*3 7.6 C 3.2 km/h
140 26-01-2018 11:35:00 7.6 C 7.81 g/m*3 7.6 C 4.8 km/h
141 26-01-2018 11:40:00 7.6 C 7.81 g/m*3 7.6 C 3.2 km/h
142 26-01-2018 11:45:00 7.6 C 7.81 g/m*3 7.6 C 1.6 km/h
143 26-01-2018 11:50:00 7.6 C 7.81 g/m*3 7.6 C 3.2 km/h
144 26-01-2018 11:55:00 7.6 C 7.81 g/m*3 6.6 C 6.4 km/h
145 26-01-2018 12:00:00 7.6 C 7.73 g/m*3 7.6 C 4.8 km/h
146 26-01-2018 12:05:00 7.6 C 7.73 g/m*3 7.6 C 3.2 km/h
147 26-01-2018 12:10:00 7.6 C 7.73 g/m*3 7.6 C 1.6 km/h
148 26-01-2018 12:15:00 7.6 C 7.73 g/m*3 7.6 C 3.2 km/h
149 26-01-2018 12:20:00 7.7 C 7.78 g/m*3 7.7 C 1.6 km/h
150 26-01-2018 12:25:00 7.7 C 7.78 g/m*3 7.7 C 4.8 km/h
Sensor: Nr:Datum:Temp:Abs-Feuchte:Windchill:Wind:
Aussen-T/F 151 26-01-2018 12:30:00 7.7 C 7.78 g/m*3 7.7 C 4.8 km/h
152 26-01-2018 12:35:00 7.8 C 7.83 g/m*3 7.8 C 1.6 km/h
153 26-01-2018 12:40:00 7.8 C 7.83 g/m*3 7.8 C 1.6 km/h
154 26-01-2018 12:45:00 7.8 C 7.83 g/m*3 7.8 C 3.2 km/h
155 26-01-2018 12:50:00 7.9 C 7.89 g/m*3 7.9 C 3.2 km/h
156 26-01-2018 12:55:00 8 C 7.94 g/m*3 8 C 4.8 km/h
157 26-01-2018 13:00:00 8.1 C 7.99 g/m*3 8.1 C 1.6 km/h
158 26-01-2018 13:05:00 8.2 C 8.04 g/m*3 8.2 C 3.2 km/h
159 26-01-2018 13:10:00 8.2 C 7.96 g/m*3 8.2 C 3.2 km/h
160 26-01-2018 13:15:00 8.3 C 8.01 g/m*3 8.3 C 4.8 km/h
161 26-01-2018 13:20:00 8.3 C 8.01 g/m*3 8.3 C 3.2 km/h
162 26-01-2018 13:25:00 8.4 C 8.06 g/m*3 8.4 C 0 km/h
163 26-01-2018 13:30:00 8.4 C 8.06 g/m*3 8.4 C 1.6 km/h
164 26-01-2018 13:35:00 8.5 C 8.03 g/m*3 8.5 C 1.6 km/h
165 26-01-2018 13:40:00 8.6 C 8.08 g/m*3 8.6 C 4.8 km/h
166 26-01-2018 13:45:00 8.6 C 8.08 g/m*3 8.6 C 3.2 km/h
167 26-01-2018 13:50:00 8.7 C 8.04 g/m*3 8.7 C 3.2 km/h
168 26-01-2018 13:55:00 8.7 C 8.04 g/m*3 8.7 C 3.2 km/h
169 26-01-2018 14:00:00 8.8 C 8.09 g/m*3 8.8 C 1.6 km/h
170 26-01-2018 14:05:00 8.8 C 8.09 g/m*3 8.8 C 1.6 km/h
171 26-01-2018 14:10:00 8.8 C 8.01 g/m*3 8.8 C 4.8 km/h
172 26-01-2018 14:15:00 8.8 C 7.92 g/m*3 8.8 C 4.8 km/h
173 26-01-2018 14:20:00 8.8 C 7.92 g/m*3 8.8 C 1.6 km/h
174 26-01-2018 14:25:00 8.8 C 7.92 g/m*3 8.8 C 3.2 km/h
175 26-01-2018 14:30:00 8.8 C 7.92 g/m*3 8.8 C 3.2 km/h
Sensor: Nr:Datum:Temp:Abs-Feuchte:Windchill:Wind:
Aussen-T/F 176 26-01-2018 14:35:00 8.8 C 7.92 g/m*3 8.8 C 1.6 km/h
177 26-01-2018 14:40:00 8.8 C 7.92 g/m*3 8.8 C 0 km/h
178 26-01-2018 14:45:00 8.7 C 7.78 g/m*3 8.7 C 0 km/h
179 26-01-2018 14:50:00 8.7 C 7.87 g/m*3 8.7 C 3.2 km/h
180 26-01-2018 14:55:00 8.7 C 7.87 g/m*3 8.7 C 1.6 km/h
181 26-01-2018 15:00:00 8.7 C 7.87 g/m*3 8.7 C 0 km/h
182 26-01-2018 15:05:00 8.8 C 7.92 g/m*3 8.8 C 0 km/h
183 26-01-2018 15:10:00 8.8 C 8.01 g/m*3 8.8 C 0 km/h
184 26-01-2018 15:15:00 8.8 C 7.92 g/m*3 8.8 C 0 km/h
185 26-01-2018 15:20:00 8.7 C 7.78 g/m*3 8.7 C 0 km/h
186 26-01-2018 15:25:00 8.7 C 7.78 g/m*3 8.7 C 0 km/h
187 26-01-2018 15:30:00 8.7 C 7.78 g/m*3 8.7 C 1.6 km/h
188 26-01-2018 15:35:00 8.7 C 7.78 g/m*3 8.7 C 1.6 km/h
189 26-01-2018 15:40:00 8.7 C 7.78 g/m*3 8.7 C 0 km/h
190 26-01-2018 15:45:00 8.7 C 7.78 g/m*3 8.7 C 0 km/h
191 26-01-2018 15:50:00 8.7 C 7.78 g/m*3 8.7 C 0 km/h
192 26-01-2018 15:55:00 8.7 C 7.78 g/m*3 8.7 C 0 km/h
193 26-01-2018 16:00:00 8.7 C 7.87 g/m*3 8.7 C 0 km/h
194 26-01-2018 16:05:00 8.7 C 7.87 g/m*3 8.7 C 0 km/h
195 26-01-2018 16:10:00 8.7 C 7.96 g/m*3 8.7 C 0 km/h
196 26-01-2018 16:15:00 8.7 C 7.96 g/m*3 8.7 C 0 km/h
197 26-01-2018 16:20:00 8.6 C 7.91 g/m*3 8.6 C 0 km/h
198 26-01-2018 16:25:00 8.6 C 7.99 g/m*3 8.6 C 0 km/h
199 26-01-2018 16:30:00 8.4 C 7.8 g/m*3 8.4 C 0 km/h
200 26-01-2018 16:35:00 8.3 C 7.75 g/m*3 8.3 C 0 km/h
Sensor: Nr:Datum:Temp:Abs-Feuchte:Windchill:Wind:
Aussen-T/F 201 26-01-2018 16:40:00 8.2 C 7.79 g/m*3 8.2 C 0 km/h
202 26-01-2018 16:45:00 8.1 C 7.74 g/m*3 8.1 C 1.6 km/h
203 26-01-2018 16:50:00 7.9 C 7.64 g/m*3 7.9 C 0 km/h
204 26-01-2018 16:55:00 7.7 C 7.54 g/m*3 7.7 C 0 km/h
205 26-01-2018 17:00:00 7.6 C 7.49 g/m*3 7.6 C 1.6 km/h
206 26-01-2018 17:05:00 7.5 C 7.44 g/m*3 7.5 C 0 km/h
207 26-01-2018 17:10:00 7.4 C 7.4 g/m*3 7.4 C 0 km/h
208 26-01-2018 17:15:00 7.3 C 7.35 g/m*3 7.3 C 3.2 km/h
209 26-01-2018 17:20:00 7.2 C 7.38 g/m*3 7.2 C 3.2 km/h
210 26-01-2018 17:25:00 7.1 C 7.33 g/m*3 7.1 C 3.2 km/h
211 26-01-2018 17:30:00 7 C 7.28 g/m*3 7 C 3.2 km/h
212 26-01-2018 17:35:00 6.9 C 7.24 g/m*3 6.9 C 3.2 km/h
213 26-01-2018 17:40:00 6.8 C 7.19 g/m*3 6.8 C 4.8 km/h
214 26-01-2018 17:45:00 6.8 C 7.19 g/m*3 6.8 C 4.8 km/h
215 26-01-2018 17:50:00 6.7 C 7.14 g/m*3 6.7 C 3.2 km/h
216 26-01-2018 17:55:00 6.6 C 7.1 g/m*3 6.6 C 0 km/h
217 26-01-2018 18:00:00 6.6 C 7.17 g/m*3 6.6 C 0 km/h
218 26-01-2018 18:05:00 6.4 C 7 g/m*3 6.4 C 1.6 km/h
219 26-01-2018 18:10:00 6.4 C 7.08 g/m*3 6.4 C 3.2 km/h
220 26-01-2018 18:15:00 6.4 C 7.08 g/m*3 6.4 C 0 km/h
221 26-01-2018 18:20:00 6.3 C 7.03 g/m*3 6.3 C 0 km/h
222 26-01-2018 18:25:00 6.3 C 7.03 g/m*3 6.3 C 0 km/h
223 26-01-2018 18:30:00 6.1 C 6.94 g/m*3 6.1 C 0 km/h
224 26-01-2018 18:35:00 6 C 6.9 g/m*3 6 C 0 km/h
225 26-01-2018 18:40:00 5.9 C 6.85 g/m*3 5.9 C 0 km/h
Sensor: Nr:Datum:Temp:Abs-Feuchte:Windchill:Wind:
Aussen-T/F 226 26-01-2018 18:45:00 5.8 C 6.81 g/m*3 5.8 C 0 km/h
227 26-01-2018 18:50:00 5.7 C 6.76 g/m*3 5.7 C 0 km/h
228 26-01-2018 18:55:00 5.6 C 6.72 g/m*3 5.6 C 0 km/h
229 26-01-2018 19:00:00 5.6 C 6.72 g/m*3 5.6 C 0 km/h
230 26-01-2018 19:05:00 5.5 C 6.67 g/m*3 5.5 C 0 km/h
231 26-01-2018 19:10:00 5.4 C 6.63 g/m*3 5.4 C 0 km/h
232 26-01-2018 19:15:00 5.3 C 6.58 g/m*3 5.3 C 0 km/h
233 26-01-2018 19:20:00 5.3 C 6.58 g/m*3 5.3 C 0 km/h
234 26-01-2018 19:25:00 5.2 C 6.54 g/m*3 5.2 C 0 km/h
235 26-01-2018 19:30:00 5 C 6.46 g/m*3 5 C 0 km/h
236 26-01-2018 19:35:00 5 C 6.46 g/m*3 5 C 0 km/h
237 26-01-2018 19:40:00 4.9 C 6.41 g/m*3 4.9 C 0 km/h
238 26-01-2018 19:45:00 4.9 C 6.41 g/m*3 4.9 C 0 km/h
239 26-01-2018 19:50:00 4.8 C 6.44 g/m*3 4.8 C 0 km/h
240 26-01-2018 19:55:00 4.8 C 6.44 g/m*3 4.8 C 0 km/h
241 26-01-2018 20:00:00 4.7 C 6.39 g/m*3 4.7 C 0 km/h
242 26-01-2018 20:05:00 4.7 C 6.33 g/m*3 4.7 C 0 km/h
243 26-01-2018 20:10:00 4.6 C 6.29 g/m*3 4.6 C 0 km/h
244 26-01-2018 20:15:00 4.6 C 6.35 g/m*3 4.6 C 0 km/h
245 26-01-2018 20:20:00 4.5 C 6.31 g/m*3 4.5 C 0 km/h
246 26-01-2018 20:25:00 4.4 C 6.2 g/m*3 4.4 C 0 km/h
247 26-01-2018 20:30:00 4.3 C 6.16 g/m*3 4.3 C 0 km/h
248 26-01-2018 20:35:00 4.2 C 6.12 g/m*3 4.2 C 0 km/h
249 26-01-2018 20:40:00 4.1 C 6.14 g/m*3 4.1 C 0 km/h
250 26-01-2018 20:45:00 4.1 C 6.14 g/m*3 4.1 C 0 km/h
Sensor: Nr:Datum:Temp:Abs-Feuchte:Windchill:Wind:
Aussen-T/F 251 26-01-2018 20:50:00 4.3 C 6.23 g/m*3 4.3 C 0 km/h
252 26-01-2018 20:55:00 4.4 C 6.27 g/m*3 4.4 C 0 km/h
253 26-01-2018 21:00:00 4.5 C 6.31 g/m*3 4.5 C 0 km/h
254 26-01-2018 21:05:00 4.5 C 6.31 g/m*3 4.5 C 0 km/h
255 26-01-2018 21:10:00 4.5 C 6.31 g/m*3 4.5 C 0 km/h
256 26-01-2018 21:15:00 4.4 C 6.27 g/m*3 4.4 C 0 km/h
257 26-01-2018 21:20:00 4.4 C 6.27 g/m*3 4.4 C 0 km/h
258 26-01-2018 21:25:00 4.3 C 6.23 g/m*3 4.3 C 0 km/h
259 26-01-2018 21:30:00 4.3 C 6.23 g/m*3 4.3 C 0 km/h
260 26-01-2018 21:35:00 4.3 C 6.23 g/m*3 4.3 C 0 km/h
261 26-01-2018 21:40:00 4.3 C 6.23 g/m*3 4.3 C 0 km/h
262 26-01-2018 21:45:00 4.3 C 6.23 g/m*3 4.3 C 0 km/h
263 26-01-2018 21:50:00 4.3 C 6.23 g/m*3 4.3 C 0 km/h
264 26-01-2018 21:55:00 4.3 C 6.23 g/m*3 4.3 C 0 km/h
265 26-01-2018 22:00:00 4.3 C 6.23 g/m*3 4.3 C 0 km/h
266 26-01-2018 22:05:00 4.3 C 6.23 g/m*3 4.3 C 0 km/h
267 26-01-2018 22:10:00 4.3 C 6.23 g/m*3 4.3 C 0 km/h
268 26-01-2018 22:15:00 4.2 C 6.19 g/m*3 4.2 C 0 km/h
269 26-01-2018 22:20:00 4.1 C 6.14 g/m*3 4.1 C 0 km/h
270 26-01-2018 22:25:00 4 C 6.1 g/m*3 4 C 0 km/h
271 26-01-2018 22:30:00 4 C 6.1 g/m*3 4 C 0 km/h
272 26-01-2018 22:35:00 4.1 C 6.14 g/m*3 4.1 C 0 km/h
273 26-01-2018 22:40:00 4.1 C 6.21 g/m*3 4.1 C 0 km/h
274 26-01-2018 22:45:00 4.2 C 6.25 g/m*3 4.2 C 0 km/h
275 26-01-2018 22:50:00 4.2 C 6.25 g/m*3 4.2 C 0 km/h
Sensor: Nr:Datum:Temp:Abs-Feuchte:Windchill:Wind:
Aussen-T/F 276 26-01-2018 22:55:00 4.3 C 6.29 g/m*3 4.3 C 0 km/h
277 26-01-2018 23:00:00 4.3 C 6.29 g/m*3 4.3 C 0 km/h
278 26-01-2018 23:05:00 4.3 C 6.29 g/m*3 4.3 C 0 km/h
279 26-01-2018 23:10:00 4.3 C 6.29 g/m*3 4.3 C 0 km/h
280 26-01-2018 23:15:00 4.4 C 6.33 g/m*3 4.4 C 3.2 km/h
281 26-01-2018 23:20:00 4.4 C 6.33 g/m*3 4.4 C 3.2 km/h
282 26-01-2018 23:25:00 4.4 C 6.33 g/m*3 4.4 C 1.6 km/h
283 26-01-2018 23:30:00 4.4 C 6.33 g/m*3 4.4 C 1.6 km/h
284 26-01-2018 23:35:00 4.4 C 6.33 g/m*3 4.4 C 0 km/h
285 26-01-2018 23:40:00 4.4 C 6.33 g/m*3 4.4 C 1.6 km/h
286 26-01-2018 23:45:00 4.4 C 6.33 g/m*3 4.4 C 0 km/h
287 26-01-2018 23:50:00 4.4 C 6.33 g/m*3 4.4 C 0 km/h
288 26-01-2018 23:55:00 4.4 C 6.33 g/m*3 4.4 C 0 km/h

Legende:
   Min
   Max


Maximal/Minimal-Werte vom 26.01.2018 - 26.01.2018

Sensor Min Max Avg
Temp
(Aussen-T/F)
4 °C
26-01-2018  22:25:00
8.8 °C
26-01-2018  14:00:00
6.62 °C
Abs-Feuchte
(Aussen-T/F)
6.1 g/m*3
26-01-2018  22:25:00
8.09 g/m*3
26-01-2018  14:00:00
7.23 g/m*3
Windchill
(Aussen-T/F)
4 C
26-01-2018  22:25:00
8.8 C
26-01-2018  14:00:00
6.59 C

Die Daten stammen von einer Davis Vantage Pro 2 Wetter-Station und werden unter Linux mit der Software wview2wettercgi und aufbereitet. Alle Angaben erfolgen ohne Gewähr für ihre Vollständigkeit oder Richtigkeit.
Kontakt: Rainer Krienke krienke@uni-koblenz.de . Meine Webseiten an der Uni Koblenz oder privat.
Version: $Revision: 0.78 $